Meriden, United Kingdom
Current Conditions -  °F | °C
As of 10:20 AM on Tuesday 27 Jan 2015 (Local Time) from EGBB Reporting Station
Few Clouds Few Clouds  
Wind Chill: 41°   Ceiling: Unl
Heat Index: 45°   Visibility: 6mi
Dew Point: 39°   Wind: 7mph
Humidity: 81%   Direction: 240°WSW
Pressure: 30.33"   Gusts: NA
Location:  52.44°N, 1.64°W
Report Text: EGBB 271020Z 24006KT 200V270 9999 FEW016 07/04 Q1027
Loading
Personal Weather Stations






























Interactive Weather Map New forecast layout! Learn more

10-Day Weather Forecast

Advertisements
Track Severe Weather on mobile